Time;durP1;ratioP1;P1;durP2;ratioP2;P2;SDS_P1;SDS_P2;PMS_P1;PMS_P2;Temp;Humidity;BMP_temperature;BMP_pressure;BME280_temperature;BME280_humidity;BME280_pressure;Samples;Min_cycle;Max_cycle;Signal;HPM_P1;HPM_P2
2023/04/24 00:02:31;;;;;;;0.20;0.20;;;;;;;9.35;100.00;99906.53;10295814;28;20033;-79
2023/04/24 00:07:32;;;;;;;0.30;0.30;;;;;;;9.40;100.00;99906.69;10330163;28;20042;-79
2023/04/24 00:12:32;;;;;;;0.55;0.55;;;;;;;9.42;100.00;99907.31;10303792;28;20136;-79
2023/04/24 00:17:32;;;;;;;0.30;0.30;;;;;;;9.35;100.00;99905.69;10318712;28;20038;-79
2023/04/24 00:22:33;;;;;;;0.70;0.70;;;;;;;9.28;100.00;99916.50;10336184;28;20041;-78
2023/04/24 00:27:35;;;;;;;0.47;0.47;;;;;;;9.26;100.00;99914.03;10335971;28;20069;-78
2023/04/24 00:32:35;;;;;;;0.30;0.30;;;;;;;9.29;100.00;99912.78;10335903;28;20038;-79
2023/04/24 00:37:36;;;;;;;0.40;0.40;;;;;;;9.32;100.00;99915.88;10335642;28;20383;-78
2023/04/24 00:42:36;;;;;;;0.30;0.30;;;;;;;9.30;100.00;99911.72;10335930;28;20038;-78
2023/04/24 00:47:36;;;;;;;7.78;4.82;;;;;;;9.31;100.00;99916.09;10318212;28;20034;-78
2023/04/24 00:52:40;;;;;;;0.40;0.40;;;;;;;9.30;100.00;99906.34;10335043;28;20058;-78
2023/04/24 00:57:41;;;;;;;0.40;0.40;;;;;;;9.26;100.00;99911.34;10302066;28;20030;-78
2023/04/24 01:02:45;;;;;;;0.43;0.43;;;;;;;9.20;100.00;99916.75;10335153;28;20085;-78
2023/04/24 01:07:47;;;;;;;0.30;0.30;;;;;;;9.19;100.00;99923.19;10317875;28;20504;-78
2023/04/24 01:12:47;;;;;;;0.30;0.30;;;;;;;9.13;100.00;99914.09;10334274;28;20064;-79
2023/04/24 01:17:47;;;;;;;0.30;0.30;;;;;;;9.12;100.00;99906.19;10333856;28;20070;-79
2023/04/24 01:22:48;;;;;;;0.32;0.32;;;;;;;9.09;100.00;99912.81;10300096;28;20462;-78
2023/04/24 01:27:48;;;;;;;0.38;0.38;;;;;;;9.08;100.00;99917.41;10333631;28;20045;-78
2023/04/24 01:32:48;;;;;;;0.52;0.52;;;;;;;9.06;100.00;99919.50;10333381;28;20442;-78
2023/04/24 01:37:49;;;;;;;0.70;0.70;;;;;;;9.08;100.00;99914.69;10323627;28;20041;-78
2023/04/24 01:42:49;;;;;;;0.35;0.35;;;;;;;9.12;100.00;99912.41;10376386;28;20034;-79
2023/04/24 01:47:50;;;;;;;0.40;0.40;;;;;;;9.20;100.00;99916.75;10340401;28;20030;-78
2023/04/24 01:52:52;;;;;;;0.32;0.32;;;;;;;9.19;100.00;99912.38;10339184;28;20050;-79
2023/04/24 01:57:52;;;;;;;0.30;0.30;;;;;;;9.19;100.00;99905.13;10373154;28;20021;-79
2023/04/24 02:02:53;;;;;;;0.30;0.30;;;;;;;9.17;100.00;99909.91;10355348;28;20033;-79
2023/04/24 02:07:53;;;;;;;0.30;0.30;;;;;;;9.16;100.00;99916.34;10355295;28;20038;-79
2023/04/24 02:12:53;;;;;;;1.50;1.50;;;;;;;9.16;100.00;99907.44;10372987;28;20164;-77
2023/04/24 02:17:54;;;;;;;0.30;0.30;;;;;;;9.10;100.00;99910.97;10376277;28;20038;-79
2023/04/24 02:22:54;;;;;;;0.30;0.30;;;;;;;9.08;100.00;99912.00;10378177;28;20092;-76
2023/04/24 02:27:55;;;;;;;0.40;0.40;;;;;;;9.03;100.00;99914.53;10359488;28;20038;-74
2023/04/24 02:32:55;;;;;;;0.30;0.30;;;;;;;8.91;100.00;99913.50;10358095;28;20073;-75
2023/04/24 02:37:56;;;;;;;0.35;0.35;;;;;;;8.83;100.00;99919.13;10374800;28;20503;-75
2023/04/24 02:42:56;;;;;;;0.30;0.30;;;;;;;8.79;100.00;99917.88;10357353;28;20049;-75
2023/04/24 02:47:57;;;;;;;0.50;0.50;;;;;;;8.77;100.00;99922.66;10375158;28;20072;-76
2023/04/24 02:52:57;;;;;;;0.35;0.35;;;;;;;8.75;100.00;99925.56;10375860;28;20061;-76
2023/04/24 02:57:57;;;;;;;0.40;0.40;;;;;;;8.73;100.00;99914.16;10357139;28;20053;-75
2023/04/24 03:02:58;;;;;;;4.70;4.40;;;;;;;8.78;100.00;99918.94;10374006;28;20538;-74
2023/04/24 03:07:58;;;;;;;0.30;0.30;;;;;;;8.81;100.00;99921.22;10374363;28;20040;-74
2023/04/24 03:12:59;;;;;;;0.40;0.40;;;;;;;8.85;100.00;99917.06;10374299;28;20037;-75
2023/04/24 03:18:00;;;;;;;0.45;0.45;;;;;;;8.84;100.00;99904.59;10356628;28;20050;-76
2023/04/24 03:23:00;;;;;;;0.30;0.30;;;;;;;8.88;100.00;99913.94;10374681;28;20042;-76
2023/04/24 03:28:01;;;;;;;0.30;0.30;;;;;;;8.87;100.00;99906.03;10355459;28;20038;-76
2023/04/24 03:33:01;;;;;;;0.40;0.40;;;;;;;8.86;100.00;99913.31;10356279;28;20034;-77
2023/04/24 03:38:04;;;;;;;0.30;0.30;;;;;;;8.86;100.00;99924.09;10377017;28;20038;-75
2023/04/24 03:43:04;;;;;;;0.40;0.40;;;;;;;8.84;100.00;99924.31;10377694;28;20519;-76
2023/04/24 03:48:04;;;;;;;0.20;0.20;;;;;;;8.88;100.00;99932.81;10368554;28;20038;-76
2023/04/24 03:53:05;;;;;;;0.30;0.30;;;;;;;8.91;100.00;99937.81;10352313;28;20054;-77
2023/04/24 03:58:05;;;;;;;0.30;0.30;;;;;;;8.94;100.00;99948.19;10382349;28;20491;-75
2023/04/24 04:03:06;;;;;;;0.30;0.30;;;;;;;8.96;100.00;99943.38;10381052;28;20092;-77
2023/04/24 04:08:06;;;;;;;0.40;0.40;;;;;;;8.91;100.00;99953.19;10380216;28;20034;-76
2023/04/24 04:13:07;;;;;;;0.40;0.40;;;;;;;8.92;100.00;99961.06;10381812;28;20449;-76
2023/04/24 04:18:08;;;;;;;0.40;0.40;;;;;;;8.94;100.00;99968.97;10383079;28;20044;-76
2023/04/24 04:23:08;;;;;;;2.25;2.15;;;;;;;8.83;100.00;99979.34;10380379;28;20482;-76
2023/04/24 04:28:09;;;;;;;0.40;0.40;;;;;;;8.77;100.00;100001.75;10380944;28;20044;-76
2023/04/24 04:33:10;;;;;;;1.02;1.02;;;;;;;8.70;100.00;100013.59;10346427;28;20065;-76
2023/04/24 04:38:10;;;;;;;0.30;0.30;;;;;;;8.59;100.00;100023.16;10364263;28;20117;-74
2023/04/24 04:43:13;;;;;;;9.38;3.03;;;;;;;8.52;100.00;100038.50;10370415;28;20057;-77
2023/04/24 04:48:14;;;;;;;0.30;0.30;;;;;;;8.46;100.00;100056.34;10385536;28;20042;-77
2023/04/24 04:53:14;;;;;;;1.30;1.30;;;;;;;8.30;100.00;100062.09;10383458;28;20057;-77
2023/04/24 04:58:15;;;;;;;0.40;0.40;;;;;;;8.20;100.00;100085.91;10386217;28;20128;-77
2023/04/24 05:03:15;;;;;;;0.50;0.50;;;;;;;8.15;100.00;100092.72;10367548;28;20038;-76
2023/04/24 05:08:16;;;;;;;0.40;0.40;;;;;;;8.22;100.00;100117.03;10380884;28;20092;-76
2023/04/24 05:13:16;;;;;;;1.60;1.55;;;;;;;8.21;100.00;100114.56;10346777;28;20461;-79
2023/04/24 05:18:17;;;;;;;2.88;1.80;;;;;;;8.15;100.00;100135.06;10398603;28;20029;-76
2023/04/24 05:23:17;;;;;;;0.40;0.40;;;;;;;8.10;100.00;100153.69;10395735;28;20037;-77
2023/04/24 05:28:17;;;;;;;0.70;0.70;;;;;;;8.07;100.00;100176.50;10416864;28;20100;-76
2023/04/24 05:33:18;;;;;;;0.30;0.30;;;;;;;8.08;100.00;100180.03;10410582;28;20117;-74
2023/04/24 05:38:19;;;;;;;2.10;2.00;;;;;;;8.03;100.00;100195.97;10406666;28;20042;-76
2023/04/24 05:43:20;;;;;;;0.77;0.77;;;;;;;8.05;100.00;100205.53;10389921;28;20037;-76
2023/04/24 05:48:22;;;;;;;4.63;4.22;;;;;;;8.05;100.00;100213.63;10394297;28;20048;-76
2023/04/24 05:53:22;;;;;;;2.67;2.47;;;;;;;8.07;100.00;100230.44;10404441;28;20053;-76
2023/04/24 05:58:23;;;;;;;1.13;1.13;;;;;;;8.09;100.00;100247.25;10376598;28;20041;-77
2023/04/24 06:03:23;;;;;;;4.95;4.00;;;;;;;8.11;100.00;100263.25;10378887;28;20123;-76
2023/04/24 06:08:23;;;;;;;0.45;0.45;;;;;;;8.03;100.00;100279.56;10386633;28;20038;-77
2023/04/24 06:13:24;;;;;;;0.50;0.50;;;;;;;8.04;100.00;100289.31;10407386;28;20049;-76
2023/04/24 06:18:24;;;;;;;0.22;0.22;;;;;;;8.01;100.00;100308.56;10380132;28;20061;-75
2023/04/24 06:23:25;;;;;;;1.48;1.48;;;;;;;8.03;100.00;100314.59;10378465;28;20130;-74
2023/04/24 06:28:25;;;;;;;0.30;0.30;;;;;;;8.00;100.00;100321.22;10361706;28;20045;-76
2023/04/24 06:33:26;;;;;;;2.88;2.67;;;;;;;8.01;100.00;100338.22;10388307;28;20038;-75
2023/04/24 06:38:27;;;;;;;0.40;0.40;;;;;;;8.03;100.00;100350.50;10403366;28;20095;-76
2023/04/24 06:43:27;;;;;;;0.20;0.20;;;;;;;8.11;100.00;100363.84;10406240;28;20022;-76
2023/04/24 06:48:27;;;;;;;0.65;0.65;;;;;;;8.24;100.00;100373.91;10387380;28;20039;-76
2023/04/24 06:53:28;;;;;;;1.30;1.20;;;;;;;8.26;100.00;100397.97;10400273;28;20060;-75
2023/04/24 06:58:28;;;;;;;0.82;0.82;;;;;;;8.15;100.00;100393.97;10385596;28;20038;-75
2023/04/24 07:03:29;;;;;;;0.63;0.63;;;;;;;8.17;100.00;100408.09;10400609;28;20432;-76
2023/04/24 07:08:30;;;;;;;0.43;0.43;;;;;;;8.25;100.00;100415.19;10397029;28;20397;-77
2023/04/24 07:13:30;;;;;;;0.30;0.30;;;;;;;8.30;100.00;100426.25;10348713;28;20125;-75
2023/04/24 07:18:31;;;;;;;0.50;0.50;;;;;;;8.20;100.00;100442.78;10378858;28;20469;-77
2023/04/24 07:23:31;;;;;;;0.40;0.40;;;;;;;8.15;100.00;100447.91;10375093;28;20034;-74
2023/04/24 07:28:32;;;;;;;1.10;1.10;;;;;;;8.29;100.00;100454.25;10375575;28;20069;-76
2023/04/24 07:33:32;;;;;;;0.90;0.90;;;;;;;8.30;100.00;100472.13;10356589;28;20049;-75
2023/04/24 07:38:33;;;;;;;0.38;0.38;;;;;;;8.32;100.00;100478.13;10357205;28;20096;-76
2023/04/24 07:43:33;;;;;;;2.58;2.38;;;;;;;8.33;100.00;100483.34;10340308;28;20042;-77
2023/04/24 07:48:34;;;;;;;1.75;1.73;;;;;;;8.42;100.00;100491.34;10373282;28;20045;-74
2023/04/24 07:53:34;;;;;;;0.90;0.90;;;;;;;8.36;100.00;100503.72;10374094;28;20054;-74
2023/04/24 07:58:35;;;;;;;0.40;0.40;;;;;;;8.11;100.00;100504.09;10339533;28;20046;-73
2023/04/24 08:03:35;;;;;;;0.30;0.30;;;;;;;8.07;100.00;100519.00;10354746;28;20042;-74
2023/04/24 08:08:36;;;;;;;0.85;0.85;;;;;;;8.10;100.00;100525.84;10371504;28;20045;-74
2023/04/24 08:13:36;;;;;;;0.40;0.40;;;;;;;8.23;100.00;100538.63;10338916;28;20406;-73
2023/04/24 08:18:36;;;;;;;0.35;0.35;;;;;;;8.36;100.00;100539.63;10371904;28;20045;-73
2023/04/24 08:23:37;;;;;;;0.40;0.40;;;;;;;8.60;100.00;100549.22;10354877;28;20030;-73
2023/04/24 08:28:37;;;;;;;0.30;0.30;;;;;;;8.70;100.00;100551.59;10373353;28;20061;-70
2023/04/24 08:33:40;;;;;;;0.30;0.30;;;;;;;8.46;100.00;100568.19;10362188;28;20037;-71
2023/04/24 08:38:42;;;;;;;0.40;0.40;;;;;;;8.35;100.00;100586.50;10330535;28;20116;-72
2023/04/24 08:43:42;;;;;;;0.30;0.30;;;;;;;8.42;100.00;100588.47;10347753;28;20034;-70
2023/04/24 08:48:42;;;;;;;0.30;0.30;;;;;;;8.56;100.00;100596.53;10361845;28;20038;-70
2023/04/24 08:53:43;;;;;;;0.30;0.30;;;;;;;8.53;100.00;100602.31;10360802;28;20085;-71
2023/04/24 08:58:43;;;;;;;0.32;0.32;;;;;;;8.34;100.00;100611.81;10361138;28;20038;-70
2023/04/24 09:03:44;;;;;;;0.73;0.73;;;;;;;8.32;100.00;100624.66;10329430;28;20054;-69
2023/04/24 09:08:45;;;;;;;0.50;0.50;;;;;;;8.45;100.00;100618.59;10344526;28;20026;-71
2023/04/24 09:13:45;;;;;;;0.47;0.47;;;;;;;8.84;100.00;100629.00;10345491;28;20026;-69
2023/04/24 09:18:46;;;;;;;0.30;0.30;;;;;;;9.35;100.00;100624.44;10361476;28;20397;-69
2023/04/24 09:23:46;;;;;;;0.40;0.40;;;;;;;9.68;100.00;100625.50;10377233;28;20113;-69
2023/04/24 09:28:47;;;;;;;8.18;2.58;;;;;;;10.16;100.00;100624.72;10360411;28;20030;-68
2023/04/24 09:33:55;;;;;;;5.97;2.45;;;;;;;10.51;100.00;100635.50;10377945;28;20461;-70
2023/04/24 09:39:00;;;;;;;10.38;2.00;;;;;;;10.61;100.00;100644.06;10377869;28;20041;-71
2023/04/24 09:44:22;;;;;;;9.93;2.08;;;;;;;10.53;100.00;100657.78;10377353;28;20158;-71
2023/04/24 09:49:24;;;;;;;2.40;1.58;;;;;;;10.59;100.00;100659.66;10376398;28;20057;-69
2023/04/24 09:54:25;;;;;;;6.55;2.20;;;;;;;10.30;100.00;100667.06;10360055;28;20034;-70
2023/04/24 09:59:26;;;;;;;2.78;1.42;;;;;;;10.45;100.00;100678.59;10342990;28;20058;-68
2023/04/24 10:04:27;;;;;;;5.60;1.52;;;;;;;10.75;100.00;100680.13;10358695;28;20025;-70
2023/04/24 10:09:28;;;;;;;8.15;1.30;;;;;;;11.15;100.00;100700.88;10360243;28;20034;-69
2023/04/24 10:14:28;;;;;;;5.15;2.25;;;;;;;10.85;100.00;100700.41;10359191;28;20041;-69
2023/04/24 10:19:28;;;;;;;8.82;1.95;;;;;;;10.54;100.00;100700.91;10326622;28;20061;-69
2023/04/24 10:24:29;;;;;;;9.82;3.28;;;;;;;10.45;100.00;100707.53;10327022;28;20026;-68
2023/04/24 10:29:29;;;;;;;4.60;2.10;;;;;;;10.07;100.00;100701.69;10342217;28;20417;-70
2023/04/24 10:34:30;;;;;;;2.60;1.88;;;;;;;10.15;100.00;100706.94;10326237;28;20037;-69
2023/04/24 10:39:33;;;;;;;1.58;1.48;;;;;;;10.69;100.00;100717.84;10356615;28;20033;-68
2023/04/24 10:44:36;;;;;;;2.83;1.67;;;;;;;12.90;100.00;100719.38;10357937;28;20378;-68
2023/04/24 10:49:37;;;;;;;8.43;2.85;;;;;;;12.61;100.00;100728.91;10356512;28;20060;-68
2023/04/24 10:54:40;;;;;;;5.05;2.00;;;;;;;11.82;100.00;100747.84;10340566;28;20084;-69
2023/04/24 10:59:41;;;;;;;1.20;0.70;;;;;;;11.61;100.00;100742.59;10374344;28;20030;-70
2023/04/24 11:04:42;;;;;;;2.80;1.45;;;;;;;12.50;100.00;100743.97;10357159;28;20068;-69
2023/04/24 11:09:43;;;;;;;1.05;1.05;;;;;;;13.80;100.00;100757.28;10373318;28;20040;-69
2023/04/24 11:14:59;;;;;;;1.45;1.35;;;;;;;14.24;100.00;100752.69;10374001;28;20037;-71
2023/04/24 11:20:17;;;;;;;1.67;1.38;;;;;;;14.51;100.00;100767.69;10373603;28;20084;-70
2023/04/24 11:25:19;;;;;;;2.20;1.55;;;;;;;14.25;100.00;100776.97;10373935;28;20149;-69
2023/04/24 11:30:20;;;;;;;2.42;2.22;;;;;;;14.09;100.00;100781.09;10356393;28;20037;-70
2023/04/24 11:35:24;;;;;;;7.53;2.28;;;;;;;13.64;100.00;100792.13;10339669;28;20398;-69
2023/04/24 11:40:25;;;;;;;4.45;1.98;;;;;;;13.60;100.00;100790.91;10374514;28;20048;-69
2023/04/24 11:45:27;;;;;;;7.90;3.10;;;;;;;13.66;100.00;100805.53;10355937;28;20126;-69
2023/04/24 11:50:29;;;;;;;13.10;2.22;;;;;;;13.53;100.00;100809.19;10340145;28;20133;-69
2023/04/24 11:55:30;;;;;;;3.40;2.17;;;;;;;14.03;100.00;100811.94;10355652;28;20045;-70
2023/04/24 12:00:31;;;;;;;5.53;2.88;;;;;;;13.94;100.00;100815.97;10373135;28;20026;-69
2023/04/24 12:05:32;;;;;;;5.82;2.25;;;;;;;12.66;100.00;100832.31;10376790;28;20389;-69
2023/04/24 12:10:32;;;;;;;10.07;3.78;;;;;;;11.02;100.00;100838.22;10380313;28;20033;-72
2023/04/24 12:15:33;;;;;;;11.45;4.47;;;;;;;10.62;100.00;100846.09;10380748;28;20030;-71
2023/04/24 12:20:35;;;;;;;7.53;3.80;;;;;;;11.55;100.00;100844.66;10362095;28;20034;-72
2023/04/24 12:25:36;;;;;;;11.60;4.00;;;;;;;11.85;100.00;100845.13;10363180;28;20115;-71
2023/04/24 12:30:44;;;;;;;5.05;3.45;;;;;;;12.69;100.00;100851.75;10363786;28;20069;-69
2023/04/24 12:35:45;;;;;;;11.18;3.47;;;;;;;12.14;100.00;100850.38;10362917;28;20522;-69
2023/04/24 12:40:45;;;;;;;13.32;3.97;;;;;;;12.33;100.00;100854.94;10380541;28;20120;-69
2023/04/24 12:45:47;;;;;;;19.25;4.78;;;;;;;12.10;100.00;100864.34;10362788;28;20053;-69
2023/04/24 12:50:47;;;;;;;21.48;5.60;;;;;;;11.90;100.00;100870.78;10360787;28;20065;-70
2023/04/24 12:55:52;;;;;;;10.02;4.63;;;;;;;11.92;100.00;100866.00;10362585;28;20033;-70
2023/04/24 13:00:53;;;;;;;8.02;2.97;;;;;;;11.79;100.00;100880.34;10379531;28;20034;-68
2023/04/24 13:05:53;;;;;;;6.03;4.05;;;;;;;11.43;100.00;100891.53;10362513;28;20124;-69
2023/04/24 13:10:53;;;;;;;12.50;5.90;;;;;;;11.38;100.00;100892.13;10361977;28;20038;-71
2023/04/24 13:15:54;;;;;;;4.97;3.15;;;;;;;11.60;100.00;100901.81;10377060;28;20572;-69
2023/04/24 13:20:55;;;;;;;7.65;3.72;;;;;;;12.00;100.00;100899.22;10361402;28;20157;-70
2023/04/24 13:25:58;;;;;;;14.48;4.45;;;;;;;11.92;100.00;100904.81;10378121;28;20108;-69
2023/04/24 13:30:58;;;;;;;5.85;4.18;;;;;;;11.94;100.00;100905.47;10377731;28;20030;-69
2023/04/24 13:35:58;;;;;;;11.85;3.75;;;;;;;12.26;100.00;100901.09;10343900;28;20034;-70
2023/04/24 13:40:59;;;;;;;9.30;3.38;;;;;;;13.16;100.00;100905.97;10377909;28;20125;-70
2023/04/24 13:46:02;;;;;;;3.35;2.58;;;;;;;12.75;100.00;100910.69;10377992;28;20061;-70
2023/04/24 13:51:03;;;;;;;6.70;3.85;;;;;;;11.99;100.00;100904.84;10359810;28;20053;-70
2023/04/24 13:56:03;;;;;;;8.60;4.40;;;;;;;12.05;100.00;100914.88;10359622;28;20068;-70
2023/04/24 14:01:04;;;;;;;23.70;4.03;;;;;;;11.89;100.00;100907.13;10342766;28;20124;-69
2023/04/24 14:06:06;;;;;;;21.65;5.13;;;;;;;11.59;100.00;100921.84;10375856;28;20503;-69
2023/04/24 14:11:06;;;;;;;8.85;4.28;;;;;;;10.99;100.00;100925.31;10376452;28;20467;-69
2023/04/24 14:16:07;;;;;;;4.07;3.10;;;;;;;10.93;100.00;100932.34;10342204;28;20037;-73
2023/04/24 14:21:07;;;;;;;10.35;4.97;;;;;;;11.34;100.00;100928.81;10375861;28;20496;-68
2023/04/24 14:26:08;;;;;;;10.90;3.72;;;;;;;11.75;100.00;100917.09;10356729;28;20033;-69
2023/04/24 14:31:09;;;;;;;13.60;5.45;;;;;;;11.76;100.00;100921.47;10357991;28;20054;-70
2023/04/24 14:36:10;;;;;;;16.58;4.82;;;;;;;11.66;100.00;100921.84;10359471;28;20030;-68
2023/04/24 14:41:11;;;;;;;13.85;5.00;;;;;;;12.60;100.00;100918.22;10343038;28;20025;-69
2023/04/24 14:46:12;;;;;;;11.55;4.68;;;;;;;12.40;100.00;100917.41;10374837;28;20038;-70
2023/04/24 14:51:12;;;;;;;10.63;4.18;;;;;;;11.76;100.00;100930.44;10358260;28;20049;-70
2023/04/24 14:56:12;;;;;;;9.68;3.72;;;;;;;11.18;100.00;100932.72;10357695;28;20131;-70
2023/04/24 15:01:13;;;;;;;4.20;2.83;;;;;;;11.12;100.00;100944.34;10324479;28;20137;-71
2023/04/24 15:06:13;;;;;;;5.90;3.75;;;;;;;11.39;100.00;100935.31;10374777;28;20065;-70
2023/04/24 15:11:14;;;;;;;10.65;4.13;;;;;;;11.67;100.00;100942.50;10374300;28;20117;-69
2023/04/24 15:16:14;;;;;;;14.38;5.68;;;;;;;11.48;100.00;100943.28;10341035;28;20399;-70
2023/04/24 15:21:14;;;;;;;12.93;5.80;;;;;;;11.07;100.00;100944.97;10375051;28;20038;-70
2023/04/24 15:26:15;;;;;;;24.67;5.05;;;;;;;10.88;100.00;100943.81;10357809;28;20034;-69
2023/04/24 15:31:15;;;;;;;8.07;4.95;;;;;;;10.96;100.00;100950.09;10355551;28;20467;-72
2023/04/24 15:36:17;;;;;;;9.73;4.82;;;;;;;10.84;100.00;100950.63;10372938;28;20431;-70
2023/04/24 15:41:17;;;;;;;14.50;4.63;;;;;;;10.68;100.00;100950.94;10346883;28;20037;-69
2023/04/24 15:46:17;;;;;;;11.02;4.90;;;;;;;10.45;100.00;100973.66;10347703;28;20104;-68
2023/04/24 15:51:18;;;;;;;10.57;3.67;;;;;;;10.48;100.00;100978.69;10380682;28;20038;-70
2023/04/24 15:56:19;;;;;;;10.00;3.75;;;;;;;10.33;100.00;100968.97;10364764;28;20060;-70
2023/04/24 16:01:19;;;;;;;6.50;4.03;;;;;;;10.33;100.00;100964.41;10381907;28;20117;-70
2023/04/24 16:06:20;;;;;;;13.63;5.18;;;;;;;10.41;100.00;100976.97;10348806;28;20469;-70
2023/04/24 16:11:20;;;;;;;16.05;4.82;;;;;;;10.60;100.00;100975.47;10381747;28;20034;-70
2023/04/24 16:16:23;;;;;;;10.20;4.78;;;;;;;10.31;100.00;100962.94;10346787;28;20453;-70
2023/04/24 16:21:23;;;;;;;8.82;4.18;;;;;;;10.14;100.00;100971.25;10364196;28;20040;-70
2023/04/24 16:26:23;;;;;;;22.65;4.88;;;;;;;10.07;100.00;100983.06;10362991;28;20410;-71
2023/04/24 16:31:25;;;;;;;9.05;5.65;;;;;;;10.05;100.00;100963.47;10379740;28;20037;-69
2023/04/24 16:36:27;;;;;;;7.72;5.32;;;;;;;10.13;100.00;100975.00;10363509;28;20049;-68
2023/04/24 16:41:27;;;;;;;18.40;6.03;;;;;;;10.22;100.00;100983.84;10345302;28;20038;-71
2023/04/24 16:46:28;;;;;;;10.05;4.85;;;;;;;10.21;100.00;100974.91;10362905;28;20132;-70
2023/04/24 16:51:28;;;;;;;9.77;4.25;;;;;;;10.23;100.00;100985.50;10361741;28;20085;-70
2023/04/24 16:56:29;;;;;;;14.07;6.53;;;;;;;10.24;100.00;100981.75;10347138;28;20070;-70
2023/04/24 17:01:29;;;;;;;20.52;5.40;;;;;;;10.14;100.00;100990.19;10379821;28;20469;-70
2023/04/24 17:06:30;;;;;;;17.60;4.82;;;;;;;9.93;100.00;101006.44;10379726;28;20041;-69
2023/04/24 17:11:30;;;;;;;24.85;5.30;;;;;;;9.82;100.00;101005.03;10381760;28;20057;-72
2023/04/24 17:16:31;;;;;;;10.82;4.75;;;;;;;9.67;100.00;101010.50;10385176;28;20037;-70
2023/04/24 17:21:31;;;;;;;20.35;4.85;;;;;;;9.41;100.00;101004.72;10336044;28;20457;-70
2023/04/24 17:26:32;;;;;;;17.58;5.65;;;;;;;9.41;100.00;100994.78;10379293;28;20037;-70
2023/04/24 17:31:33;;;;;;;15.23;5.70;;;;;;;9.34;100.00;100996.53;10344040;28;20025;-70
2023/04/24 17:36:33;;;;;;;16.83;4.00;;;;;;;9.40;100.00;100994.94;10328376;28;20092;-70
2023/04/24 17:41:34;;;;;;;13.02;3.85;;;;;;;9.23;100.00;101010.53;10328800;28;20205;-70
2023/04/24 17:46:34;;;;;;;9.45;4.50;;;;;;;8.97;100.00;101013.66;10359668;28;20037;-71
2023/04/24 17:51:34;;;;;;;11.88;3.67;;;;;;;9.01;100.00;101018.50;10343337;28;20050;-70
2023/04/24 17:56:35;;;;;;;13.18;3.85;;;;;;;9.07;100.00;101017.78;10376722;28;20096;-70
2023/04/24 18:01:35;;;;;;;10.95;4.22;;;;;;;9.03;100.00;101024.56;10358559;28;20443;-71
2023/04/24 18:06:36;;;;;;;8.20;4.03;;;;;;;8.93;100.00;101015.88;10377304;28;20366;-70
2023/04/24 18:11:36;;;;;;;7.90;3.70;;;;;;;8.82;100.00;101029.84;10341932;28;20120;-69
2023/04/24 18:16:37;;;;;;;9.20;4.03;;;;;;;8.67;100.00;101034.34;10358109;28;20030;-70
2023/04/24 18:21:37;;;;;;;14.82;3.53;;;;;;;8.43;100.00;101038.94;10358947;28;20045;-71
2023/04/24 18:26:37;;;;;;;8.23;4.35;;;;;;;8.41;100.00;101042.84;10341405;28;20471;-71
2023/04/24 18:31:38;;;;;;;27.20;4.68;;;;;;;8.43;100.00;101035.41;10357623;28;20485;-72
2023/04/24 18:36:38;;;;;;;8.85;2.83;;;;;;;8.48;100.00;101055.41;10357392;28;20057;-70
2023/04/24 18:41:39;;;;;;;3.85;2.53;;;;;;;8.44;100.00;101059.50;10375728;28;20462;-70
2023/04/24 18:46:40;;;;;;;8.40;3.30;;;;;;;8.33;100.00;101068.81;10375067;28;20096;-72
2023/04/24 18:51:40;;;;;;;8.13;2.35;;;;;;;8.27;100.00;101069.53;10357807;28;20129;-71
2023/04/24 18:56:41;;;;;;;6.70;2.97;;;;;;;8.18;100.00;101070.59;10357004;28;20126;-72
2023/04/24 19:01:41;;;;;;;6.55;2.25;;;;;;;7.85;100.00;101078.03;10374497;28;20064;-72
2023/04/24 19:06:42;;;;;;;6.53;2.13;;;;;;;7.81;100.00;101092.84;10356862;28;20149;-72
2023/04/24 19:11:43;;;;;;;13.57;2.88;;;;;;;7.92;100.00;101095.19;10356990;28;20385;-71
2023/04/24 19:16:44;;;;;;;3.58;2.80;;;;;;;7.98;100.00;101101.75;10360785;28;20038;-70
2023/04/24 19:21:46;;;;;;;3.15;2.13;;;;;;;8.03;100.00;101110.13;10359413;28;20509;-72
2023/04/24 19:26:46;;;;;;;10.65;3.55;;;;;;;8.08;100.00;101102.34;10376426;28;20066;-69
2023/04/24 19:31:47;;;;;;;12.60;3.42;;;;;;;8.07;100.00;101117.72;10359076;28;20079;-70
2023/04/24 19:36:47;;;;;;;12.20;4.35;;;;;;;8.15;100.00;101116.81;10357118;28;20084;-73
2023/04/24 19:41:47;;;;;;;12.73;4.07;;;;;;;8.13;100.00;101119.66;10340380;28;20060;-70
2023/04/24 19:46:48;;;;;;;9.43;4.22;;;;;;;8.08;100.00;101118.53;10375258;28;20037;-71
2023/04/24 19:51:48;;;;;;;9.23;3.20;;;;;;;8.07;100.00;101122.22;10324592;28;20149;-70
2023/04/24 19:56:49;;;;;;;8.48;3.72;;;;;;;8.00;100.00;101130.19;10357152;28;20042;-70
2023/04/24 20:01:50;;;;;;;9.15;3.15;;;;;;;7.98;100.00;101143.03;10355763;28;20076;-71
2023/04/24 20:06:50;;;;;;;14.27;4.28;;;;;;;7.97;100.00;101125.16;10357422;28;20030;-72
2023/04/24 20:11:52;;;;;;;15.15;3.60;;;;;;;7.87;100.00;101130.75;10355593;28;20026;-73
2023/04/24 20:16:53;;;;;;;8.80;4.43;;;;;;;7.77;100.00;101127.41;10355919;28;20453;-71
2023/04/24 20:21:53;;;;;;;5.68;3.55;;;;;;;7.71;100.00;101135.34;10372532;28;20117;-71
2023/04/24 20:26:54;;;;;;;7.25;2.80;;;;;;;7.58;100.00;101136.72;10343606;28;20469;-71
2023/04/24 20:31:54;;;;;;;8.20;2.72;;;;;;;7.54;100.00;101131.88;10346725;28;20037;-71
2023/04/24 20:36:58;;;;;;;8.55;3.80;;;;;;;7.61;100.00;101141.78;10380993;28;20057;-72
2023/04/24 20:41:58;;;;;;;15.68;3.97;;;;;;;7.69;100.00;101140.94;10379803;28;20033;-71
2023/04/24 20:46:58;;;;;;;12.05;3.75;;;;;;;7.55;100.00;101145.16;10346190;28;20453;-72
2023/04/24 20:51:59;;;;;;;12.77;4.55;;;;;;;7.44;100.00;101140.16;10361521;28;20050;-71
2023/04/24 20:57:00;;;;;;;9.63;4.15;;;;;;;7.36;100.00;101132.06;10363192;28;20037;-71
2023/04/24 21:02:01;;;;;;;11.40;3.53;;;;;;;7.21;100.00;101123.81;10361488;28;20084;-70
2023/04/24 21:07:01;;;;;;;21.85;3.72;;;;;;;7.11;100.00;101126.69;10362592;28;20089;-72
2023/04/24 21:12:02;;;;;;;11.95;3.28;;;;;;;7.04;100.00;101120.31;10377943;28;20096;-70
2023/04/24 21:17:02;;;;;;;20.52;4.38;;;;;;;7.00;100.00;101124.34;10378632;28;20041;-73
2023/04/24 21:22:03;;;;;;;8.80;4.53;;;;;;;6.89;100.00;101120.16;10359822;28;20034;-72
2023/04/24 21:27:03;;;;;;;13.15;3.72;;;;;;;6.83;100.00;101122.66;10378061;28;20030;-71
2023/04/24 21:32:04;;;;;;;8.00;4.32;;;;;;;6.75;100.00;101123.50;10377691;28;20038;-71
2023/04/24 21:37:04;;;;;;;14.95;4.90;;;;;;;6.71;100.00;101125.69;10359477;28;20470;-70
2023/04/24 21:42:05;;;;;;;7.72;4.78;;;;;;;6.73;100.00;101117.44;10376381;28;20034;-71
2023/04/24 21:47:05;;;;;;;13.93;4.82;;;;;;;6.79;100.00;101132.91;10358854;28;20025;-72
2023/04/24 21:52:06;;;;;;;20.65;4.93;;;;;;;6.89;100.00;101125.53;10376678;28;20121;-72
2023/04/24 21:57:07;;;;;;;24.63;4.95;;;;;;;6.94;100.00;101123.16;10359129;28;20381;-72
2023/04/24 22:02:07;;;;;;;15.85;4.15;;;;;;;6.97;100.00;101105.84;10377735;28;20072;-70
2023/04/24 22:07:07;;;;;;;10.27;4.03;;;;;;;6.86;100.00;101106.16;10358364;28;20042;-70
2023/04/24 22:12:08;;;;;;;6.68;4.25;;;;;;;6.72;100.00;101100.44;10341491;28;20069;-70
2023/04/24 22:17:09;;;;;;;8.98;3.67;;;;;;;6.64;100.00;101113.91;10342913;28;20072;-71
2023/04/24 22:22:09;;;;;;;8.52;4.13;;;;;;;6.68;100.00;101126.03;10375231;28;20084;-72
2023/04/24 22:27:09;;;;;;;18.10;5.28;;;;;;;6.88;100.00;101125.69;10358912;28;20066;-69
2023/04/24 22:32:10;;;;;;;12.20;4.43;;;;;;;6.88;100.00;101126.53;10357596;28;20065;-71
2023/04/24 22:37:10;;;;;;;29.00;4.72;;;;;;;6.72;100.00;101135.44;10375589;28;20510;-71
2023/04/24 22:42:10;;;;;;;12.80;5.32;;;;;;;6.52;100.00;101134.06;10357214;28;20054;-71
2023/04/24 22:47:11;;;;;;;13.20;5.47;;;;;;;6.44;100.00;101126.81;10356275;28;20038;-70
2023/04/24 22:52:13;;;;;;;18.60;5.82;;;;;;;6.52;100.00;101131.38;10357370;28;20046;-69
2023/04/24 22:57:14;;;;;;;27.73;7.30;;;;;;;6.68;100.00;101126.03;10357969;28;20033;-71